Latest Weather Observations for Southern Cross Airport

IDW60801

Issued at 9:23 am WST Tuesday 16 August 2022 (issued every 10 minutes, with the page automatically refreshed every 10 minutes)

About weather observations | Map of weather stations | Latest weather observations for WA | Other Formats
Station Details ID: 012320 Name: SOUTHERN CROSS AIRFIELD Lat: -31.24 Lon: 119.36 Height: 347.4 m
Data from the previous 72 hours. | See also: Recent months at Southern Cross Airport
Date/Time
WST
Temp
°C
App
Temp
°C
Dew
Point
°C
Rel
Hum
%
Delta-T
°C
Wind Press
QNH
hPa
Press
MSL
hPa
Rain since
9am
mm
Dir  Spd
km/h
Gust
km/h
Spd
kts
Gust
kts
16/09:14am 16.2 13.9 15.7 97 0.3 WNW 22 32 12 17 1008.4 1008.4 0.2
16/09:00am 16.0 13.8 15.0 94 0.6 WNW 20 26 11 14 1008.7 1008.7 17.2
16/08:30am 16.2 11.0 14.4 89 1.0 WNW 35 52 19 28 1008.6 1008.5 16.8
16/08:28am 16.4 11.6 14.6 89 1.0 WNW 33 52 18 28 1008.6 1008.5 16.8
16/08:12am 17.1 15.3 16.9 99 0.1 WNW 22 30 12 16 1008.3 1008.3 16.2
16/08:00am 17.3 14.2 16.5 95 0.5 WNW 28 39 15 21 1008.0 1008.0 16.0
16/07:56am 17.2 14.0 16.4 95 0.5 WNW 28 39 15 21 1007.9 1007.9 16.0
16/07:39am 17.2 15.9 17.2 100 0.0 NW 20 30 11 16 1007.7 1007.7 15.8
16/07:36am 17.2 16.1 17.2 100 0.0 NW 19 28 10 15 1007.6 1007.6 15.6
16/07:33am 17.2 16.4 17.2 100 0.0 NW 17 22 9 12 1007.5 1007.5 15.4
16/07:30am 17.3 16.6 17.3 100 0.0 NW 17 22 9 12 1007.3 1007.3 15.2
16/07:00am 17.2 15.1 17.2 100 0.0 NNW 24 35 13 19 1006.7 1006.7 14.6
16/06:58am 17.2 14.7 17.2 100 0.0 NNW 26 35 14 19 1006.7 1006.7 14.4
16/06:31am 17.0 14.5 17.0 100 0.0 NNW 26 39 14 21 1006.4 1006.4 13.2
16/06:30am 17.1 14.6 17.1 100 0.0 NNW 26 39 14 21 1006.4 1006.4 13.2
16/06:12am 17.1 14.2 17.1 100 0.0 NNW 28 39 15 21 1006.1 1006.0 12.0
16/06:00am 17.0 14.1 17.0 100 0.0 NNW 28 37 15 20 1006.1 1006.0 11.6
16/05:58am 17.1 14.2 17.1 100 0.0 N 28 39 15 21 1006.1 1006.0 11.4
16/05:52am 17.1 14.2 17.1 100 0.0 N 28 44 15 24 1006.0 1005.9 11.0
16/05:30am 16.9 14.6 16.7 99 0.1 N 24 30 13 16 1006.0 1005.9 10.2
16/05:00am 16.5 14.9 16.5 100 0.0 N 20 30 11 16 1006.1 1006.0 9.4
16/04:30am 16.5 13.2 16.0 97 0.3 N 28 39 15 21 1006.4 1006.4 9.2
16/04:00am 16.1 14.1 15.5 96 0.4 N 20 30 11 16 1006.4 1006.4 8.6
16/03:30am 15.5 13.6 15.2 98 0.2 NNE 19 24 10 13 1006.8 1006.8 8.4
16/03:00am 15.1 13.5 15.1 100 0.0 NNE 17 24 9 13 1007.3 1007.3 8.2
16/02:30am 15.0 14.2 15.0 100 0.0 NNE 13 19 7 10 1007.9 1007.9 7.4
16/02:00am 15.0 14.5 14.8 99 0.1 N 11 15 6 8 1008.7 1008.7 6.2
16/01:30am 15.1 14.6 14.8 98 0.2 N 11 13 6 7 1009.0 1009.0 5.2
16/01:00am 15.1 14.8 14.5 96 0.3 N 9 11 5 6 1009.2 1009.2 4.2
16/12:30am 15.3 14.9 14.2 93 0.6 NNW 9 13 5 7 1009.6 1009.6 3.6
16/12:00am 15.7 14.9 13.9 89 1.0 NNW 11 17 6 9 1009.4 1009.4 2.4
 
Date/Time
WST
Temp
°C
App
Temp
°C
Dew
Point
°C
Rel
Hum
%
Delta-T
°C
Wind Press
QNH
hPa
Press
MSL
hPa
Rain since
9am
mm
Dir  Spd
km/h
Gust
km/h
Spd
kts
Gust
kts
15/11:30pm 15.8 14.5 13.8 88 1.1 NNE 13 15 7 8 1009.2 1009.2 2.2
15/11:00pm 15.8 15.3 13.8 88 1.1 N 9 13 5 7 1009.6 1009.6 1.8
15/10:30pm 17.2 15.6 12.7 75 2.5 NNE 13 19 7 10 1009.7 1009.7 1.0
15/10:00pm 16.6 14.3 13.1 80 2.0 NE 17 22 9 12 1009.5 1009.5 1.0
15/09:30pm 16.8 15.0 13.3 80 2.0 NNE 15 17 8 9 1010.8 1010.8 0.8
15/09:00pm 16.9 15.5 13.4 80 2.0 NE 13 19 7 10 1010.8 1010.8 0.6
15/08:30pm 17.0 16.4 13.5 80 2.0 NE 9 13 5 7 1011.1 1011.2 0.4
15/08:00pm 17.7 16.6 13.2 75 2.6 NE 11 15 6 8 1011.7 1011.7 0.2
15/07:30pm 18.3 17.1 12.7 70 3.2 NE 11 13 6 7 1011.6 1011.6 0.0
15/07:00pm 18.6 16.9 12.6 68 3.4 NNE 13 17 7 9 1011.7 1011.7 0.0
15/06:30pm 17.9 17.6 13.4 75 2.6 E 7 9 4 5 1011.7 1011.7 0.0
15/06:00pm 18.4 18.0 13.1 71 3.0 N 7 9 4 5 1012.0 1012.0 0.0
15/05:30pm 18.6 18.3 13.2 71 3.1 N 7 9 4 5 1011.6 1011.6 0.0
15/05:00pm 19.9 16.8 12.2 61 4.4 NNW 20 30 11 16 1012.4 1012.4 0.0
15/04:30pm 21.9 18.7 10.1 47 6.5 NW 17 24 9 13 1011.7 1011.7 0.0
15/04:15pm 22.6 18.0 9.7 44 7.1 N 24 41 13 22 1011.8 1011.8 0.0
15/04:00pm 22.7 20.2 9.8 44 7.1 N 13 17 7 9 1011.7 1011.7 0.0
15/03:30pm 23.7 19.2 8.6 38 8.2 N 22 35 12 19 1011.4 1011.5 0.0
15/03:00pm 24.6 20.4 8.1 35 8.9 N 20 32 11 17 1011.7 1011.7 0.0
15/02:30pm 23.9 17.7 7.9 36 8.6 N 30 39 16 21 1012.3 1012.3 0.0
15/02:00pm 23.1 18.7 8.8 40 7.8 N 22 35 12 19 1012.7 1012.7 0.0
15/01:30pm 22.5 16.9 7.1 37 8.1 N 26 37 14 20 1013.2 1013.2 0.0
15/01:00pm 22.8 17.3 7.4 37 8.1 N 26 39 14 21 1013.9 1014.0 0.0
15/12:30pm 22.3 16.6 6.9 37 8.0 N 26 35 14 19 1014.8 1014.8 0.0
15/12:00pm 21.6 15.9 6.7 38 7.7 N 26 35 14 19 1015.4 1015.4 0.0
15/11:30am 20.7 16.2 7.0 41 7.1 NNE 20 28 11 15 1016.1 1016.2 0.0
15/11:00am 19.3 14.0 6.8 44 6.4 NNE 24 35 13 19 1016.8 1016.9 0.0
15/10:30am 17.7 12.2 5.9 46 5.9 NNE 24 32 13 17 1017.3 1017.4 0.0
15/10:00am 16.3 10.2 4.7 46 5.6 NNE 26 35 14 19 1017.8 1017.8 0.0
15/09:30am 15.2 9.9 5.1 51 4.9 NNE 22 28 12 15 1018.0 1018.0 0.0
15/09:00am 13.9 8.9 4.8 54 4.3 NNE 20 32 11 17 1018.3 1018.3 0.0
15/08:30am 12.5 7.6 5.2 61 3.4 NNE 20 30 11 16 1018.3 1018.3 0.0
15/08:00am 10.8 8.6 6.0 72 2.3 N 7 17 4 9 1018.4 1018.5 0.0
15/07:30am 6.9 4.7 5.2 89 0.8 N 6 9 3 5 1018.4 1018.5 0.0
15/07:00am 4.9 3.5 3.4 90 0.6 CALM 0 0 0 0 1018.1 1018.1 0.0
15/06:30am 3.5 1.5 2.5 93 0.4 W 2 7 1 4 1018.2 1018.2 0.0
15/06:00am 4.3 2.5 3.3 93 0.4 NE 2 6 1 3 1018.2 1018.2 0.0
15/05:30am 4.0 2.4 2.2 88 0.7 CALM 0 0 0 0 1018.0 1018.0 0.0
15/05:00am 4.4 1.7 2.9 90 0.6 N 6 7 3 4 1018.1 1018.1 0.0
15/04:30am 2.8 -0.5 2.2 96 0.2 N 9 11 5 6 1018.0 1018.0 0.0
15/04:00am 3.3 1.8 3.0 98 0.1 CALM 0 9 0 5 1017.9 1017.9 0.0
15/03:30am 3.1 1.5 2.7 97 0.2 CALM 0 0 0 0 1018.3 1018.3 0.0
15/03:00am 3.2 1.7 2.8 97 0.2 CALM 0 0 0 0 1018.7 1018.8 0.0
15/02:30am 4.0 1.5 3.6 97 0.2 W 6 6 3 3 1018.9 1019.0 0.0
15/02:00am 3.9 2.1 3.5 97 0.2 W 2 7 1 4 1019.1 1019.2 0.0
15/01:30am 4.3 2.2 3.7 96 0.3 SSE 4 7 2 4 1019.3 1019.4 0.0
15/01:00am 4.5 1.8 3.9 96 0.3 SSE 7 7 4 4 1019.3 1019.4 0.0
15/12:30am 4.7 2.2 3.7 93 0.4 SSE 6 7 3 4 1019.5 1019.6 0.0
15/12:00am 6.4 3.6 5.2 92 0.5 SE 9 11 5 6 1019.8 1019.9 0.0
 
Date/Time
WST
Temp
°C
App
Temp
°C
Dew
Point
°C
Rel
Hum
%
Delta-T
°C
Wind Press
QNH
hPa
Press
MSL
hPa
Rain since
9am
mm
Dir  Spd
km/h
Gust
km/h
Spd
kts
Gust
kts
14/11:30pm 6.1 3.2 4.7 91 0.6 SE 9 11 5 6 1019.9 1020.0 0.0
14/11:00pm 6.9 4.5 5.2 89 0.8 ESE 7 9 4 5 1020.0 1020.1 0.0
14/10:30pm 7.4 4.7 5.5 88 0.9 SE 9 11 5 6 1020.1 1020.2 0.0
14/10:00pm 7.9 5.6 5.7 86 1.0 SE 7 9 4 5 1020.3 1020.4 0.0
14/09:30pm 7.4 4.7 5.4 87 0.9 SE 9 9 5 5 1020.3 1020.4 0.0
14/09:00pm 7.8 5.5 5.9 88 0.9 SE 7 11 4 6 1020.4 1020.5 0.0
14/08:30pm 7.5 6.4 5.1 85 1.1 CALM 0 0 0 0 1020.3 1020.4 0.0
14/08:00pm 8.6 6.4 5.5 81 1.4 SE 6 9 3 5 1020.1 1020.2 0.0
14/07:30pm 9.0 7.0 6.1 82 1.4 SE 6 7 3 4 1019.9 1020.0 0.0
14/07:00pm 10.8 8.7 6.6 75 2.0 SSE 7 9 4 5 1019.8 1019.9 0.0
14/06:30pm 11.9 11.3 7.4 74 2.2 CALM 0 7 0 4 1019.5 1019.6 0.0
14/06:00pm 12.6 11.7 6.2 65 3.1 CALM 0 0 0 0 1019.3 1019.4 0.0
14/05:30pm 14.2 13.3 6.1 58 3.9 CALM 0 4 0 2 1019.0 1019.1 0.0
14/05:00pm 15.2 13.0 6.2 55 4.4 E 7 9 4 5 1018.8 1018.9 0.0
14/04:30pm 15.7 13.3 5.3 50 5.0 ENE 7 11 4 6 1018.7 1018.8 0.0
14/04:00pm 16.0 13.7 5.0 48 5.3 WSW 6 9 3 5 1018.7 1018.8 0.0
14/03:30pm 15.8 13.5 4.8 48 5.3 E 6 7 3 4 1018.6 1018.7 0.0
14/03:00pm 16.0 13.4 5.9 51 5.0 WSW 9 15 5 8 1018.5 1018.6 0.0
14/02:30pm 15.9 13.7 6.3 53 4.8 SW 7 11 4 6 1018.5 1018.6 0.0
14/02:00pm 15.1 11.7 6.1 55 4.4 SE 13 17 7 9 1018.9 1019.0 0.0
14/01:30pm 14.8 12.5 5.6 54 4.5 SSW 7 9 4 5 1019.2 1019.3 0.0
14/01:00pm 14.2 11.9 7.3 63 3.4 SSW 9 15 5 8 1019.7 1019.8 0.0
14/12:30pm 14.4 12.4 8.6 68 3.0 SW 9 17 5 9 1020.0 1020.1 0.0
14/12:00pm 13.3 10.4 6.6 64 3.3 S 11 17 6 9 1020.2 1020.3 0.0
14/11:30am 13.5 11.8 7.7 68 2.9 SE 6 11 3 6 1020.4 1020.5 0.0
14/11:00am 12.7 10.8 7.6 71 2.5 SSE 7 11 4 6 1020.4 1020.5 0.0
14/10:32am 12.4 10.4 8.7 78 1.9 S 9 13 5 7 1020.5 1020.6 0.0
14/10:30am 12.0 9.8 7.9 76 2.0 S 9 13 5 7 1020.5 1020.6 0.0
14/10:00am 11.5 10.3 9.6 88 1.0 SW 6 9 3 5 1020.8 1020.8 0.0
14/09:30am 10.0 8.1 8.9 93 0.6 WSW 9 11 5 6 1020.5 1020.6 0.0
14/09:00am 9.6 7.8 9.6 100 0.0 SW 9 11 5 6 1020.3 1020.4 4.8
14/08:47am 9.4 8.0 9.4 100 0.0 WSW 7 11 4 6 1020.1 1020.2 4.8
14/08:30am 9.1 7.2 9.1 100 0.0 W 9 13 5 7 1019.9 1020.0 4.8
14/08:00am 8.8 6.8 8.8 100 0.0 W 9 11 5 6 1019.4 1019.5 4.8
14/07:30am 8.9 7.0 8.9 100 0.0 WNW 9 11 5 6 1018.9 1019.0 4.8
14/07:00am 9.0 7.5 9.0 100 0.0 WNW 7 11 4 6 1018.3 1018.3 4.8
14/06:30am 9.1 6.4 9.1 100 0.0 W 13 17 7 9 1017.9 1017.9 4.8
14/06:20am 9.1 6.4 9.1 100 0.0 W 13 17 7 9 1017.7 1017.7 4.8
14/06:00am 9.1 5.7 9.1 100 0.0 WSW 17 20 9 11 1017.3 1017.4 4.8
14/05:30am 9.3 6.3 9.2 99 0.1 WSW 15 19 8 10 1016.9 1017.0 4.8
14/05:00am 9.5 6.9 9.4 99 0.1 WSW 13 17 7 9 1016.5 1016.6 4.8
14/04:30am 9.8 6.4 9.3 97 0.3 W 17 20 9 11 1015.9 1016.0 4.8
14/04:00am 10.1 7.5 9.2 94 0.5 W 13 17 7 9 1015.4 1015.4 4.8
14/03:30am 10.4 7.5 9.5 94 0.5 W 15 22 8 12 1015.6 1015.6 4.8
14/03:00am 10.2 6.9 9.4 95 0.4 WNW 17 28 9 15 1015.1 1015.1 4.8
14/02:30am 10.4 7.5 9.5 94 0.5 NW 15 20 8 11 1015.2 1015.2 4.8
14/02:29am 10.4 7.8 9.5 94 0.5 NW 13 19 7 10 1015.2 1015.2 4.8
14/02:00am 10.4 7.8 9.3 93 0.6 W 13 19 7 10 1015.4 1015.4 4.8
14/01:30am 10.7 6.8 9.3 91 0.7 WNW 20 28 11 15 1015.0 1015.0 4.8
14/01:00am 10.9 6.7 9.7 92 0.6 WNW 22 30 12 16 1014.8 1014.8 4.8
14/12:30am 10.7 7.1 9.8 94 0.5 WNW 19 22 10 12 1014.3 1014.4 4.8
14/12:00am 10.9 7.4 10.1 95 0.4 NW 19 22 10 12 1014.4 1014.5 4.8
 
Date/Time
WST
Temp
°C
App
Temp
°C
Dew
Point
°C
Rel
Hum
%
Delta-T
°C
Wind Press
QNH
hPa
Press
MSL
hPa
Rain since
9am
mm
Dir  Spd
km/h
Gust
km/h
Spd
kts
Gust
kts
13/11:30pm 10.9 8.5 10.0 94 0.5 NW 13 17 7 9 1014.5 1014.6 4.6
13/11:00pm 11.4 8.5 9.8 90 0.8 WNW 15 20 8 11 1014.4 1014.5 4.6
13/10:30pm 11.8 8.8 10.5 92 0.7 NW 17 26 9 14 1014.2 1014.3 4.6
13/10:00pm 12.2 9.2 10.6 90 0.8 NW 17 20 9 11 1014.0 1014.1 4.6
13/09:30pm 12.8 9.5 10.9 88 1.0 WNW 19 24 10 13 1013.7 1013.8 4.6
13/09:00pm 13.2 9.8 11.3 88 1.0 WNW 20 26 11 14 1013.3 1013.3 4.6
13/08:30pm 13.4 10.4 12.0 91 0.8 NW 19 24 10 13 1013.2 1013.2 4.6
13/08:23pm 13.5 10.4 12.2 92 0.7 WNW 20 28 11 15 1013.1 1013.1 4.6
13/08:20pm 13.4 10.0 12.5 94 0.5 WNW 22 28 12 15 1013.1 1013.1 4.6
13/08:11pm 13.4 9.8 13.1 98 0.2 W 24 33 13 18 1013.0 1013.0 4.6
13/08:00pm 13.5 9.9 13.0 97 0.3 WNW 24 37 13 20 1012.9 1012.9 4.6
13/07:56pm 13.6 10.8 13.1 97 0.3 WNW 20 30 11 16 1012.9 1012.9 4.2
13/07:30pm 13.6 10.7 13.0 96 0.3 WNW 20 26 11 14 1012.4 1012.4 4.2
13/07:00pm 13.2 10.2 12.7 97 0.3 NW 20 28 11 15 1011.8 1011.8 4.0
13/06:30pm 13.0 9.4 11.9 93 0.6 WNW 22 32 12 17 1011.3 1011.4 3.2
13/06:05pm 14.4 9.4 11.0 80 1.8 WNW 28 48 15 26 1011.6 1011.6 2.2
13/06:00pm 14.4 10.9 10.8 79 1.9 W 20 32 11 17 1011.2 1011.3 2.0
13/05:56pm 13.6 10.9 11.8 89 1.0 WNW 17 26 9 14 1011.2 1011.3 1.8
13/05:30pm 14.0 12.8 11.7 86 1.3 NE 9 11 5 6 1009.2 1009.2 1.8
13/05:00pm 15.0 11.9 10.2 73 2.6 WNW 17 20 9 11 1010.1 1010.1 1.4
13/04:30pm 17.5 12.9 8.1 54 4.9 NNW 22 32 12 17 1009.0 1009.0 0.2
13/04:00pm 18.4 13.1 6.9 47 5.9 NNW 24 33 13 18 1009.2 1009.2 0.2
13/03:30pm 21.1 14.9 2.4 29 8.9 N 24 37 13 20 1009.2 1009.2 0.0
13/03:00pm 21.2 15.3 2.0 28 9.1 NNE 22 32 12 17 1008.9 1008.9 0.0
13/02:30pm 21.3 14.5 1.0 26 9.4 N 26 39 14 21 1009.7 1009.7 0.0
13/02:00pm 21.9 14.8 1.6 26 9.6 N 28 41 15 22 1010.0 1010.0 0.0
13/01:30pm 21.8 15.5 1.5 26 9.5 N 24 35 13 19 1010.8 1010.8 0.0
13/01:00pm 21.8 14.9 0.4 24 9.9 N 26 35 14 19 1011.6 1011.6 0.0
13/12:30pm 20.7 12.7 0.5 26 9.2 N 32 44 17 24 1012.7 1012.7 0.0
13/12:00pm 20.6 12.5 -0.1 25 9.3 N 32 44 17 24 1013.6 1013.7 0.0
13/11:30am 20.1 12.0 0.0 26 9.1 N 32 43 17 23 1014.3 1014.4 0.0
13/11:00am 19.4 11.2 0.4 28 8.6 N 33 48 18 26 1015.0 1015.0 0.0
13/10:52am 19.3 12.1 0.4 28 8.5 N 28 48 15 26 1014.8 1014.8 0.0
13/10:30am 18.0 11.0 1.9 34 7.4 N 28 39 15 21 1015.2 1015.2 0.0
13/10:00am 16.4 9.4 1.7 37 6.6 NNE 28 41 15 22 1015.6 1015.6 0.0
13/09:30am 14.3 7.9 3.2 47 5.1 NNE 26 33 14 18 1015.8 1015.8 0.0

Other formats

Comma delimited format used in spreadsheet applications
http://www.bom.gov.au/fwo/IDW60801/IDW60801.95634.axf

JavaScript Object Notation format (JSON) in row-major order
http://www.bom.gov.au/fwo/IDW60801/IDW60801.95634.json

Data quality

Most of these data are generated automatically and are frequently updated. Quality checks on data are not normally performed. It is possible for incorrect values to appear. Refer to information at About Latest Weather Observations and please check the disclaimer before using these data.